sensor_id;sensor_type;location;lat;lon;timestamp;P1;durP1;ratioP1;P2;durP2;ratioP2
23280;SDS011;11809;56.390;-3.266;2023-11-18T00:02:26;3.10;;;2.80;;
23280;SDS011;11809;56.390;-3.266;2023-11-18T00:05:00;3.33;;;2.92;;
23280;SDS011;11809;56.390;-3.266;2023-11-18T00:07:34;3.22;;;2.92;;
23280;SDS011;11809;56.390;-3.266;2023-11-18T00:10:05;3.05;;;2.53;;
23280;SDS011;11809;56.390;-3.266;2023-11-18T00:12:36;2.75;;;2.45;;
23280;SDS011;11809;56.390;-3.266;2023-11-18T00:15:08;2.55;;;2.35;;
23280;SDS011;11809;56.390;-3.266;2023-11-18T00:17:40;3.70;;;2.65;;
23280;SDS011;11809;56.390;-3.266;2023-11-18T00:20:10;2.45;;;2.25;;
23280;SDS011;11809;56.390;-3.266;2023-11-18T00:22:45;3.42;;;2.70;;
23280;SDS011;11809;56.390;-3.266;2023-11-18T00:25:17;3.08;;;2.38;;
23280;SDS011;11809;56.390;-3.266;2023-11-18T00:27:48;3.70;;;2.40;;
23280;SDS011;11809;56.390;-3.266;2023-11-18T00:30:18;2.78;;;2.55;;
23280;SDS011;11809;56.390;-3.266;2023-11-18T00:32:49;3.03;;;2.70;;
23280;SDS011;11809;56.390;-3.266;2023-11-18T00:35:19;2.75;;;2.28;;
23280;SDS011;11809;56.390;-3.266;2023-11-18T00:37:53;2.40;;;2.20;;
23280;SDS011;11809;56.390;-3.266;2023-11-18T00:40:23;2.53;;;2.33;;
23280;SDS011;11809;56.390;-3.266;2023-11-18T00:42:56;2.47;;;2.10;;
23280;SDS011;11809;56.390;-3.266;2023-11-18T00:45:27;2.78;;;2.20;;
23280;SDS011;11809;56.390;-3.266;2023-11-18T00:47:58;2.30;;;2.08;;
23280;SDS011;11809;56.390;-3.266;2023-11-18T00:50:28;2.20;;;2.00;;
23280;SDS011;11809;56.390;-3.266;2023-11-18T00:53:02;2.28;;;2.05;;
23280;SDS011;11809;56.390;-3.266;2023-11-18T00:55:33;2.75;;;2.15;;
23280;SDS011;11809;56.390;-3.266;2023-11-18T00:58:03;2.40;;;2.20;;
23280;SDS011;11809;56.390;-3.266;2023-11-18T01:00:35;2.33;;;2.13;;
23280;SDS011;11809;56.390;-3.266;2023-11-18T01:03:05;2.28;;;1.85;;
23280;SDS011;11809;56.390;-3.266;2023-11-18T01:05:37;2.00;;;1.90;;
23280;SDS011;11809;56.390;-3.266;2023-11-18T01:08:10;2.05;;;1.85;;
23280;SDS011;11809;56.390;-3.266;2023-11-18T01:10:40;1.98;;;1.77;;
23280;SDS011;11809;56.390;-3.266;2023-11-18T01:13:11;2.10;;;1.77;;
23280;SDS011;11809;56.390;-3.266;2023-11-18T01:15:41;1.77;;;1.67;;
23280;SDS011;11809;56.390;-3.266;2023-11-18T01:18:12;2.15;;;1.70;;
23280;SDS011;11809;56.390;-3.266;2023-11-18T01:20:42;2.13;;;1.83;;
23280;SDS011;11809;56.390;-3.266;2023-11-18T01:25:46;1.70;;;1.60;;
23280;SDS011;11809;56.390;-3.266;2023-11-18T01:28:18;1.60;;;1.50;;
23280;SDS011;11809;56.390;-3.266;2023-11-18T01:30:48;2.00;;;1.80;;
23280;SDS011;11809;56.390;-3.266;2023-11-18T01:33:18;1.73;;;1.63;;
23280;SDS011;11809;56.390;-3.266;2023-11-18T01:35:52;4.10;;;1.63;;
23280;SDS011;11809;56.390;-3.266;2023-11-18T01:38:25;1.58;;;1.45;;
23280;SDS011;11809;56.390;-3.266;2023-11-18T01:40:56;1.98;;;1.50;;
23280;SDS011;11809;56.390;-3.266;2023-11-18T01:43:27;1.90;;;1.80;;
23280;SDS011;11809;56.390;-3.266;2023-11-18T01:45:58;1.40;;;1.30;;
23280;SDS011;11809;56.390;-3.266;2023-11-18T01:48:30;1.73;;;1.42;;
23280;SDS011;11809;56.390;-3.266;2023-11-18T01:51:03;1.40;;;1.30;;
23280;SDS011;11809;56.390;-3.266;2023-11-18T01:53:39;1.50;;;1.40;;
23280;SDS011;11809;56.390;-3.266;2023-11-18T01:56:12;1.50;;;1.40;;
23280;SDS011;11809;56.390;-3.266;2023-11-18T01:58:42;2.17;;;1.42;;
23280;SDS011;11809;56.390;-3.266;2023-11-18T02:01:13;1.52;;;1.40;;
23280;SDS011;11809;56.390;-3.266;2023-11-18T02:06:15;1.40;;;1.30;;
23280;SDS011;11809;56.390;-3.266;2023-11-18T02:08:48;1.40;;;1.30;;
23280;SDS011;11809;56.390;-3.266;2023-11-18T02:11:20;2.20;;;1.27;;
23280;SDS011;11809;56.390;-3.266;2023-11-18T02:13:58;1.38;;;1.25;;
23280;SDS011;11809;56.390;-3.266;2023-11-18T02:16:37;1.10;;;1.00;;
23280;SDS011;11809;56.390;-3.266;2023-11-18T02:19:14;1.85;;;1.30;;
23280;SDS011;11809;56.390;-3.266;2023-11-18T02:21:49;1.42;;;1.10;;
23280;SDS011;11809;56.390;-3.266;2023-11-18T02:24:30;2.17;;;1.05;;
23280;SDS011;11809;56.390;-3.266;2023-11-18T02:27:06;1.90;;;1.33;;
23280;SDS011;11809;56.390;-3.266;2023-11-18T02:29:39;1.48;;;0.90;;
23280;SDS011;11809;56.390;-3.266;2023-11-18T02:32:15;1.95;;;1.05;;
23280;SDS011;11809;56.390;-3.266;2023-11-18T02:34:52;1.08;;;0.98;;
23280;SDS011;11809;56.390;-3.266;2023-11-18T02:37:29;1.23;;;1.00;;
23280;SDS011;11809;56.390;-3.266;2023-11-18T02:40:01;1.23;;;1.10;;
23280;SDS011;11809;56.390;-3.266;2023-11-18T02:42:41;1.15;;;1.00;;
23280;SDS011;11809;56.390;-3.266;2023-11-18T02:45:14;1.00;;;0.90;;
23280;SDS011;11809;56.390;-3.266;2023-11-18T02:47:46;0.90;;;0.90;;
23280;SDS011;11809;56.390;-3.266;2023-11-18T02:50:16;1.15;;;0.90;;
23280;SDS011;11809;56.390;-3.266;2023-11-18T02:52:47;1.08;;;0.98;;
23280;SDS011;11809;56.390;-3.266;2023-11-18T02:55:18;0.90;;;0.90;;
23280;SDS011;11809;56.390;-3.266;2023-11-18T02:57:52;1.02;;;0.75;;
23280;SDS011;11809;56.390;-3.266;2023-11-18T03:00:23;0.77;;;0.70;;
23280;SDS011;11809;56.390;-3.266;2023-11-18T03:02:55;0.80;;;0.80;;
23280;SDS011;11809;56.390;-3.266;2023-11-18T03:05:25;1.17;;;0.87;;
23280;SDS011;11809;56.390;-3.266;2023-11-18T03:07:57;1.10;;;0.82;;
23280;SDS011;11809;56.390;-3.266;2023-11-18T03:10:27;1.10;;;0.80;;
23280;SDS011;11809;56.390;-3.266;2023-11-18T03:13:02;0.90;;;0.90;;
23280;SDS011;11809;56.390;-3.266;2023-11-18T03:15:33;0.80;;;0.80;;
23280;SDS011;11809;56.390;-3.266;2023-11-18T03:18:04;1.42;;;0.82;;
23280;SDS011;11809;56.390;-3.266;2023-11-18T03:20:34;0.95;;;0.80;;
23280;SDS011;11809;56.390;-3.266;2023-11-18T03:23:05;1.42;;;0.70;;
23280;SDS011;11809;56.390;-3.266;2023-11-18T03:25:36;0.75;;;0.70;;
23280;SDS011;11809;56.390;-3.266;2023-11-18T03:28:10;0.80;;;0.80;;
23280;SDS011;11809;56.390;-3.266;2023-11-18T03:30:41;0.70;;;0.60;;
23280;SDS011;11809;56.390;-3.266;2023-11-18T03:33:11;0.77;;;0.63;;
23280;SDS011;11809;56.390;-3.266;2023-11-18T03:35:42;1.38;;;0.80;;
23280;SDS011;11809;56.390;-3.266;2023-11-18T03:38:12;0.87;;;0.70;;
23280;SDS011;11809;56.390;-3.266;2023-11-18T03:40:44;0.70;;;0.70;;
23280;SDS011;11809;56.390;-3.266;2023-11-18T03:43:17;0.80;;;0.80;;
23280;SDS011;11809;56.390;-3.266;2023-11-18T03:45:48;0.75;;;0.75;;
23280;SDS011;11809;56.390;-3.266;2023-11-18T03:48:19;0.88;;;0.80;;
23280;SDS011;11809;56.390;-3.266;2023-11-18T03:50:49;0.50;;;0.50;;
23280;SDS011;11809;56.390;-3.266;2023-11-18T03:55:50;0.80;;;0.60;;
23280;SDS011;11809;56.390;-3.266;2023-11-18T03:58:23;0.60;;;0.60;;
23280;SDS011;11809;56.390;-3.266;2023-11-18T04:00:54;0.82;;;0.70;;
23280;SDS011;11809;56.390;-3.266;2023-11-18T04:03:24;0.60;;;0.60;;
23280;SDS011;11809;56.390;-3.266;2023-11-18T04:05:55;1.00;;;0.80;;
23280;SDS011;11809;56.390;-3.266;2023-11-18T04:08:25;1.13;;;0.60;;
23280;SDS011;11809;56.390;-3.266;2023-11-18T04:10:55;0.50;;;0.50;;
23280;SDS011;11809;56.390;-3.266;2023-11-18T04:13:29;0.63;;;0.50;;
23280;SDS011;11809;56.390;-3.266;2023-11-18T04:15:59;0.60;;;0.50;;
23280;SDS011;11809;56.390;-3.266;2023-11-18T04:18:30;0.75;;;0.55;;
23280;SDS011;11809;56.390;-3.266;2023-11-18T04:21:00;0.70;;;0.70;;
23280;SDS011;11809;56.390;-3.266;2023-11-18T04:23:30;0.60;;;0.60;;
23280;SDS011;11809;56.390;-3.266;2023-11-18T04:26:02;0.50;;;0.50;;
23280;SDS011;11809;56.390;-3.266;2023-11-18T04:28:36;1.10;;;0.60;;
23280;SDS011;11809;56.390;-3.266;2023-11-18T04:31:07;0.80;;;0.70;;
23280;SDS011;11809;56.390;-3.266;2023-11-18T04:33:38;1.10;;;0.70;;
23280;SDS011;11809;56.390;-3.266;2023-11-18T04:36:09;0.50;;;0.50;;
23280;SDS011;11809;56.390;-3.266;2023-11-18T04:38:41;1.25;;;0.50;;
23280;SDS011;11809;56.390;-3.266;2023-11-18T04:41:12;1.02;;;0.75;;
23280;SDS011;11809;56.390;-3.266;2023-11-18T04:43:45;1.60;;;0.67;;
23280;SDS011;11809;56.390;-3.266;2023-11-18T04:46:15;0.60;;;0.60;;
23280;SDS011;11809;56.390;-3.266;2023-11-18T04:48:46;0.70;;;0.70;;
23280;SDS011;11809;56.390;-3.266;2023-11-18T04:51:16;1.27;;;0.85;;
23280;SDS011;11809;56.390;-3.266;2023-11-18T04:53:48;0.65;;;0.65;;
23280;SDS011;11809;56.390;-3.266;2023-11-18T04:56:18;0.55;;;0.55;;
23280;SDS011;11809;56.390;-3.266;2023-11-18T04:58:51;0.65;;;0.60;;
23280;SDS011;11809;56.390;-3.266;2023-11-18T05:01:21;0.70;;;0.50;;
23280;SDS011;11809;56.390;-3.266;2023-11-18T05:03:52;1.08;;;0.70;;
23280;SDS011;11809;56.390;-3.266;2023-11-18T05:06:23;0.68;;;0.68;;
23280;SDS011;11809;56.390;-3.266;2023-11-18T05:08:53;1.00;;;0.60;;
23280;SDS011;11809;56.390;-3.266;2023-11-18T05:11:23;0.63;;;0.52;;
23280;SDS011;11809;56.390;-3.266;2023-11-18T05:13:56;0.50;;;0.50;;
23280;SDS011;11809;56.390;-3.266;2023-11-18T05:16:27;0.60;;;0.60;;
23280;SDS011;11809;56.390;-3.266;2023-11-18T05:18:58;0.63;;;0.60;;
23280;SDS011;11809;56.390;-3.266;2023-11-18T05:21:28;0.70;;;0.50;;
23280;SDS011;11809;56.390;-3.266;2023-11-18T05:23:59;1.27;;;0.63;;
23280;SDS011;11809;56.390;-3.266;2023-11-18T05:26:29;1.13;;;0.60;;
23280;SDS011;11809;56.390;-3.266;2023-11-18T05:29:04;0.93;;;0.60;;
23280;SDS011;11809;56.390;-3.266;2023-11-18T05:31:34;0.50;;;0.50;;
23280;SDS011;11809;56.390;-3.266;2023-11-18T05:34:05;0.85;;;0.52;;
23280;SDS011;11809;56.390;-3.266;2023-11-18T05:36:35;0.63;;;0.60;;
23280;SDS011;11809;56.390;-3.266;2023-11-18T05:39:07;0.85;;;0.60;;
23280;SDS011;11809;56.390;-3.266;2023-11-18T05:41:38;0.80;;;0.70;;
23280;SDS011;11809;56.390;-3.266;2023-11-18T05:44:15;1.02;;;0.60;;
23280;SDS011;11809;56.390;-3.266;2023-11-18T05:46:48;0.68;;;0.68;;
23280;SDS011;11809;56.390;-3.266;2023-11-18T05:49:20;0.80;;;0.60;;
23280;SDS011;11809;56.390;-3.266;2023-11-18T05:51:51;0.50;;;0.50;;
23280;SDS011;11809;56.390;-3.266;2023-11-18T05:54:21;1.45;;;0.70;;
23280;SDS011;11809;56.390;-3.266;2023-11-18T05:56:52;0.80;;;0.60;;
23280;SDS011;11809;56.390;-3.266;2023-11-18T05:59:28;0.50;;;0.50;;
23280;SDS011;11809;56.390;-3.266;2023-11-18T06:01:58;0.95;;;0.70;;
23280;SDS011;11809;56.390;-3.266;2023-11-18T06:04:30;0.93;;;0.60;;
23280;SDS011;11809;56.390;-3.266;2023-11-18T06:07:00;1.03;;;0.50;;
23280;SDS011;11809;56.390;-3.266;2023-11-18T06:09:31;0.57;;;0.57;;
23280;SDS011;11809;56.390;-3.266;2023-11-18T06:12:02;0.90;;;0.77;;
23280;SDS011;11809;56.390;-3.266;2023-11-18T06:14:38;0.85;;;0.60;;
23280;SDS011;11809;56.390;-3.266;2023-11-18T06:17:11;1.35;;;0.80;;
23280;SDS011;11809;56.390;-3.266;2023-11-18T06:19:42;3.60;;;0.73;;
23280;SDS011;11809;56.390;-3.266;2023-11-18T06:22:12;2.23;;;1.00;;
23280;SDS011;11809;56.390;-3.266;2023-11-18T06:24:42;2.10;;;0.93;;
23280;SDS011;11809;56.390;-3.266;2023-11-18T06:27:13;3.25;;;1.10;;
23280;SDS011;11809;56.390;-3.266;2023-11-18T06:32:21;10.23;;;1.58;;
23280;SDS011;11809;56.390;-3.266;2023-11-18T06:34:52;2.83;;;0.88;;
23280;SDS011;11809;56.390;-3.266;2023-11-18T06:37:23;5.93;;;1.27;;
23280;SDS011;11809;56.390;-3.266;2023-11-18T06:39:53;5.28;;;1.30;;
23280;SDS011;11809;56.390;-3.266;2023-11-18T06:42:24;4.45;;;1.85;;
23280;SDS011;11809;56.390;-3.266;2023-11-18T06:44:57;2.75;;;0.80;;
23280;SDS011;11809;56.390;-3.266;2023-11-18T06:47:27;4.20;;;1.17;;
23280;SDS011;11809;56.390;-3.266;2023-11-18T06:50:00;3.95;;;1.00;;
23280;SDS011;11809;56.390;-3.266;2023-11-18T06:52:30;3.10;;;1.10;;
23280;SDS011;11809;56.390;-3.266;2023-11-18T06:55:02;3.17;;;1.33;;
23280;SDS011;11809;56.390;-3.266;2023-11-18T06:57:34;4.55;;;1.10;;
23280;SDS011;11809;56.390;-3.266;2023-11-18T07:00:08;3.20;;;1.15;;
23280;SDS011;11809;56.390;-3.266;2023-11-18T07:02:42;1.60;;;1.10;;
23280;SDS011;11809;56.390;-3.266;2023-11-18T07:05:14;2.28;;;1.38;;
23280;SDS011;11809;56.390;-3.266;2023-11-18T07:10:15;1.98;;;1.20;;
23280;SDS011;11809;56.390;-3.266;2023-11-18T07:12:47;3.38;;;1.20;;
23280;SDS011;11809;56.390;-3.266;2023-11-18T07:15:20;1.47;;;1.20;;
23280;SDS011;11809;56.390;-3.266;2023-11-18T07:17:51;1.45;;;1.30;;
23280;SDS011;11809;56.390;-3.266;2023-11-18T07:20:22;2.80;;;1.50;;
23280;SDS011;11809;56.390;-3.266;2023-11-18T07:22:52;2.05;;;1.30;;
23280;SDS011;11809;56.390;-3.266;2023-11-18T07:25:24;1.88;;;1.60;;
23280;SDS011;11809;56.390;-3.266;2023-11-18T07:27:55;2.88;;;1.40;;
23280;SDS011;11809;56.390;-3.266;2023-11-18T07:30:29;1.73;;;1.60;;
23280;SDS011;11809;56.390;-3.266;2023-11-18T07:33:03;1.90;;;1.60;;
23280;SDS011;11809;56.390;-3.266;2023-11-18T07:35:35;1.77;;;1.40;;
23280;SDS011;11809;56.390;-3.266;2023-11-18T07:38:06;1.48;;;1.38;;
23280;SDS011;11809;56.390;-3.266;2023-11-18T07:40:37;1.77;;;1.67;;
23280;SDS011;11809;56.390;-3.266;2023-11-18T07:43:09;1.90;;;1.52;;
23280;SDS011;11809;56.390;-3.266;2023-11-18T07:45:42;1.60;;;1.50;;
23280;SDS011;11809;56.390;-3.266;2023-11-18T07:48:16;1.98;;;1.60;;
23280;SDS011;11809;56.390;-3.266;2023-11-18T07:50:47;1.38;;;1.27;;
23280;SDS011;11809;56.390;-3.266;2023-11-18T07:53:18;1.75;;;1.65;;
23280;SDS011;11809;56.390;-3.266;2023-11-18T07:55:49;3.35;;;1.73;;
23280;SDS011;11809;56.390;-3.266;2023-11-18T07:58:19;2.35;;;1.70;;
23280;SDS011;11809;56.390;-3.266;2023-11-18T08:00:53;3.97;;;1.85;;
23280;SDS011;11809;56.390;-3.266;2023-11-18T08:03:23;3.72;;;1.65;;
23280;SDS011;11809;56.390;-3.266;2023-11-18T08:08:24;2.65;;;1.90;;
23280;SDS011;11809;56.390;-3.266;2023-11-18T08:10:55;1.88;;;1.67;;
23280;SDS011;11809;56.390;-3.266;2023-11-18T08:13:26;3.80;;;1.58;;
23280;SDS011;11809;56.390;-3.266;2023-11-18T08:16:00;3.05;;;1.75;;
23280;SDS011;11809;56.390;-3.266;2023-11-18T08:18:31;1.60;;;1.50;;
23280;SDS011;11809;56.390;-3.266;2023-11-18T08:21:02;1.60;;;1.50;;
23280;SDS011;11809;56.390;-3.266;2023-11-18T08:23:34;12.38;;;2.10;;
23280;SDS011;11809;56.390;-3.266;2023-11-18T08:26:05;4.63;;;1.50;;
23280;SDS011;11809;56.390;-3.266;2023-11-18T08:28:36;2.95;;;1.70;;
23280;SDS011;11809;56.390;-3.266;2023-11-18T08:31:10;2.50;;;1.75;;
23280;SDS011;11809;56.390;-3.266;2023-11-18T08:33:44;4.97;;;1.70;;
23280;SDS011;11809;56.390;-3.266;2023-11-18T08:36:15;2.65;;;1.60;;
23280;SDS011;11809;56.390;-3.266;2023-11-18T08:38:46;3.57;;;1.70;;
23280;SDS011;11809;56.390;-3.266;2023-11-18T08:41:17;3.03;;;1.70;;
23280;SDS011;11809;56.390;-3.266;2023-11-18T08:43:49;1.98;;;1.67;;
23280;SDS011;11809;56.390;-3.266;2023-11-18T08:46:23;2.00;;;1.63;;
23280;SDS011;11809;56.390;-3.266;2023-11-18T08:48:53;1.67;;;1.58;;
23280;SDS011;11809;56.390;-3.266;2023-11-18T08:51:24;4.72;;;1.73;;
23280;SDS011;11809;56.390;-3.266;2023-11-18T08:56:25;3.00;;;1.55;;
23280;SDS011;11809;56.390;-3.266;2023-11-18T08:59:01;7.10;;;1.83;;
23280;SDS011;11809;56.390;-3.266;2023-11-18T09:01:38;5.82;;;2.13;;
23280;SDS011;11809;56.390;-3.266;2023-11-18T09:04:13;4.10;;;1.65;;
23280;SDS011;11809;56.390;-3.266;2023-11-18T09:06:47;1.85;;;1.38;;
23280;SDS011;11809;56.390;-3.266;2023-11-18T09:09:21;1.75;;;1.17;;
23280;SDS011;11809;56.390;-3.266;2023-11-18T09:11:54;3.67;;;1.52;;
23280;SDS011;11809;56.390;-3.266;2023-11-18T09:14:26;2.58;;;1.30;;
23280;SDS011;11809;56.390;-3.266;2023-11-18T09:17:03;1.40;;;1.30;;
23280;SDS011;11809;56.390;-3.266;2023-11-18T09:19:34;2.92;;;1.40;;
23280;SDS011;11809;56.390;-3.266;2023-11-18T09:22:05;1.98;;;1.25;;
23280;SDS011;11809;56.390;-3.266;2023-11-18T09:24:40;6.88;;;1.67;;
23280;SDS011;11809;56.390;-3.266;2023-11-18T09:27:11;3.10;;;1.33;;
23280;SDS011;11809;56.390;-3.266;2023-11-18T09:29:45;5.03;;;1.35;;
23280;SDS011;11809;56.390;-3.266;2023-11-18T09:32:19;3.90;;;1.20;;
23280;SDS011;11809;56.390;-3.266;2023-11-18T09:34:54;1.80;;;1.20;;
23280;SDS011;11809;56.390;-3.266;2023-11-18T09:37:25;3.67;;;1.10;;
23280;SDS011;11809;56.390;-3.266;2023-11-18T09:39:57;3.78;;;1.23;;
23280;SDS011;11809;56.390;-3.266;2023-11-18T09:42:38;6.25;;;1.10;;
23280;SDS011;11809;56.390;-3.266;2023-11-18T09:45:10;3.20;;;1.20;;
23280;SDS011;11809;56.390;-3.266;2023-11-18T09:47:49;3.42;;;1.10;;
23280;SDS011;11809;56.390;-3.266;2023-11-18T09:50:21;2.75;;;1.15;;
23280;SDS011;11809;56.390;-3.266;2023-11-18T09:52:59;5.07;;;1.02;;
23280;SDS011;11809;56.390;-3.266;2023-11-18T09:55:41;3.40;;;0.90;;
23280;SDS011;11809;56.390;-3.266;2023-11-18T09:58:22;3.03;;;0.90;;
23280;SDS011;11809;56.390;-3.266;2023-11-18T10:00:55;1.10;;;0.70;;
23280;SDS011;11809;56.390;-3.266;2023-11-18T10:03:32;1.20;;;0.80;;
23280;SDS011;11809;56.390;-3.266;2023-11-18T10:06:05;2.03;;;0.80;;
23280;SDS011;11809;56.390;-3.266;2023-11-18T10:08:36;2.33;;;0.80;;
23280;SDS011;11809;56.390;-3.266;2023-11-18T10:11:07;2.10;;;0.70;;
23280;SDS011;11809;56.390;-3.266;2023-11-18T10:13:40;1.23;;;0.70;;
23280;SDS011;11809;56.390;-3.266;2023-11-18T10:16:11;2.63;;;0.90;;
23280;SDS011;11809;56.390;-3.266;2023-11-18T10:18:45;2.00;;;0.70;;
23280;SDS011;11809;56.390;-3.266;2023-11-18T10:21:21;0.60;;;0.47;;
23280;SDS011;11809;56.390;-3.266;2023-11-18T10:24:07;0.50;;;0.50;;
23280;SDS011;11809;56.390;-3.266;2023-11-18T10:26:42;0.55;;;0.50;;
23280;SDS011;11809;56.390;-3.266;2023-11-18T10:29:16;1.50;;;0.80;;
23280;SDS011;11809;56.390;-3.266;2023-11-18T10:31:47;2.35;;;0.70;;
23280;SDS011;11809;56.390;-3.266;2023-11-18T10:34:23;0.90;;;0.50;;
23280;SDS011;11809;56.390;-3.266;2023-11-18T10:37:00;1.13;;;0.65;;
23280;SDS011;11809;56.390;-3.266;2023-11-18T10:39:33;0.75;;;0.60;;
23280;SDS011;11809;56.390;-3.266;2023-11-18T10:42:04;0.77;;;0.60;;
23280;SDS011;11809;56.390;-3.266;2023-11-18T10:44:35;1.00;;;0.57;;
23280;SDS011;11809;56.390;-3.266;2023-11-18T10:47:07;0.68;;;0.60;;
23280;SDS011;11809;56.390;-3.266;2023-11-18T10:49:44;2.35;;;0.70;;
23280;SDS011;11809;56.390;-3.266;2023-11-18T10:52:15;0.82;;;0.50;;
23280;SDS011;11809;56.390;-3.266;2023-11-18T10:54:50;0.43;;;0.40;;
23280;SDS011;11809;56.390;-3.266;2023-11-18T10:57:21;1.05;;;0.57;;
23280;SDS011;11809;56.390;-3.266;2023-11-18T10:59:59;0.70;;;0.55;;
23280;SDS011;11809;56.390;-3.266;2023-11-18T11:02:30;0.50;;;0.40;;
23280;SDS011;11809;56.390;-3.266;2023-11-18T11:05:11;0.45;;;0.30;;
23280;SDS011;11809;56.390;-3.266;2023-11-18T11:07:47;1.20;;;0.45;;
23280;SDS011;11809;56.390;-3.266;2023-11-18T11:10:19;1.13;;;0.50;;
23280;SDS011;11809;56.390;-3.266;2023-11-18T11:12:55;1.05;;;0.43;;
23280;SDS011;11809;56.390;-3.266;2023-11-18T11:15:31;6.53;;;1.13;;
23280;SDS011;11809;56.390;-3.266;2023-11-18T11:18:18;4.03;;;0.63;;
23280;SDS011;11809;56.390;-3.266;2023-11-18T11:21:02;2.97;;;0.68;;
23280;SDS011;11809;56.390;-3.266;2023-11-18T11:23:46;2.50;;;0.40;;
23280;SDS011;11809;56.390;-3.266;2023-11-18T11:26:26;8.02;;;0.90;;
23280;SDS011;11809;56.390;-3.266;2023-11-18T11:29:25;8.35;;;0.60;;
23280;SDS011;11809;56.390;-3.266;2023-11-18T11:32:02;6.57;;;1.00;;
23280;SDS011;11809;56.390;-3.266;2023-11-18T11:34:45;9.05;;;0.90;;
23280;SDS011;11809;56.390;-3.266;2023-11-18T11:37:26;11.20;;;0.97;;
23280;SDS011;11809;56.390;-3.266;2023-11-18T11:39:59;11.23;;;1.00;;
23280;SDS011;11809;56.390;-3.266;2023-11-18T11:42:34;10.80;;;0.93;;
23280;SDS011;11809;56.390;-3.266;2023-11-18T11:45:06;4.53;;;0.90;;
23280;SDS011;11809;56.390;-3.266;2023-11-18T11:47:47;6.47;;;0.63;;
23280;SDS011;11809;56.390;-3.266;2023-11-18T11:50:22;7.80;;;1.02;;
23280;SDS011;11809;56.390;-3.266;2023-11-18T11:53:03;5.07;;;0.85;;
23280;SDS011;11809;56.390;-3.266;2023-11-18T11:55:44;6.97;;;0.75;;
23280;SDS011;11809;56.390;-3.266;2023-11-18T11:58:28;20.02;;;1.40;;
23280;SDS011;11809;56.390;-3.266;2023-11-18T12:01:00;9.40;;;1.10;;
23280;SDS011;11809;56.390;-3.266;2023-11-18T12:03:38;10.90;;;1.27;;
23280;SDS011;11809;56.390;-3.266;2023-11-18T12:06:12;6.70;;;1.00;;
23280;SDS011;11809;56.390;-3.266;2023-11-18T12:08:45;5.18;;;0.63;;
23280;SDS011;11809;56.390;-3.266;2023-11-18T12:11:18;5.63;;;0.90;;
23280;SDS011;11809;56.390;-3.266;2023-11-18T12:14:02;4.32;;;1.27;;
23280;SDS011;11809;56.390;-3.266;2023-11-18T12:19:35;7.18;;;0.80;;
23280;SDS011;11809;56.390;-3.266;2023-11-18T12:22:20;15.98;;;1.30;;
23280;SDS011;11809;56.390;-3.266;2023-11-18T12:28:09;11.35;;;0.80;;
23280;SDS011;11809;56.390;-3.266;2023-11-18T12:30:42;14.43;;;1.13;;
23280;SDS011;11809;56.390;-3.266;2023-11-18T12:33:23;32.08;;;2.38;;
23280;SDS011;11809;56.390;-3.266;2023-11-18T12:39:01;16.33;;;1.50;;
23280;SDS011;11809;56.390;-3.266;2023-11-18T12:41:48;17.75;;;1.40;;
23280;SDS011;11809;56.390;-3.266;2023-11-18T12:44:39;12.43;;;0.88;;
23280;SDS011;11809;56.390;-3.266;2023-11-18T12:47:34;10.25;;;1.17;;
23280;SDS011;11809;56.390;-3.266;2023-11-18T12:50:08;8.05;;;1.17;;
23280;SDS011;11809;56.390;-3.266;2023-11-18T12:52:51;12.68;;;1.05;;
23280;SDS011;11809;56.390;-3.266;2023-11-18T12:55:24;12.20;;;1.40;;
23280;SDS011;11809;56.390;-3.266;2023-11-18T12:57:56;12.90;;;1.25;;
23280;SDS011;11809;56.390;-3.266;2023-11-18T13:00:35;6.43;;;0.70;;
23280;SDS011;11809;56.390;-3.266;2023-11-18T13:03:05;6.85;;;1.00;;
23280;SDS011;11809;56.390;-3.266;2023-11-18T13:05:37;7.97;;;1.00;;
23280;SDS011;11809;56.390;-3.266;2023-11-18T13:08:10;4.68;;;0.70;;
23280;SDS011;11809;56.390;-3.266;2023-11-18T13:10:42;8.68;;;0.77;;
23280;SDS011;11809;56.390;-3.266;2023-11-18T13:13:13;3.83;;;0.70;;
23280;SDS011;11809;56.390;-3.266;2023-11-18T13:15:49;5.00;;;1.02;;
23280;SDS011;11809;56.390;-3.266;2023-11-18T13:18:20;5.25;;;0.55;;
23280;SDS011;11809;56.390;-3.266;2023-11-18T13:20:56;6.18;;;0.75;;
23280;SDS011;11809;56.390;-3.266;2023-11-18T13:23:27;3.60;;;0.40;;
23280;SDS011;11809;56.390;-3.266;2023-11-18T13:25:57;3.25;;;0.57;;
23280;SDS011;11809;56.390;-3.266;2023-11-18T13:28:32;2.63;;;0.50;;
23280;SDS011;11809;56.390;-3.266;2023-11-18T13:31:06;5.07;;;0.50;;
23280;SDS011;11809;56.390;-3.266;2023-11-18T13:33:38;2.20;;;0.40;;
23280;SDS011;11809;56.390;-3.266;2023-11-18T13:36:09;2.72;;;0.50;;
23280;SDS011;11809;56.390;-3.266;2023-11-18T13:38:41;2.63;;;0.40;;
23280;SDS011;11809;56.390;-3.266;2023-11-18T13:41:17;2.72;;;0.50;;
23280;SDS011;11809;56.390;-3.266;2023-11-18T13:43:59;5.80;;;0.75;;
23280;SDS011;11809;56.390;-3.266;2023-11-18T13:49:03;6.60;;;0.68;;
23280;SDS011;11809;56.390;-3.266;2023-11-18T13:51:35;2.50;;;0.50;;
23280;SDS011;11809;56.390;-3.266;2023-11-18T13:56:36;4.43;;;0.50;;
23280;SDS011;11809;56.390;-3.266;2023-11-18T13:59:07;3.88;;;0.47;;
23280;SDS011;11809;56.390;-3.266;2023-11-18T14:01:41;6.25;;;0.68;;
23280;SDS011;11809;56.390;-3.266;2023-11-18T14:04:15;7.25;;;0.70;;
23280;SDS011;11809;56.390;-3.266;2023-11-18T14:06:50;4.78;;;0.70;;
23280;SDS011;11809;56.390;-3.266;2023-11-18T14:09:22;8.07;;;0.80;;
23280;SDS011;11809;56.390;-3.266;2023-11-18T14:11:54;13.27;;;5.57;;
23280;SDS011;11809;56.390;-3.266;2023-11-18T14:14:24;24.40;;;8.43;;
23280;SDS011;11809;56.390;-3.266;2023-11-18T14:16:58;15.02;;;4.22;;
23280;SDS011;11809;56.390;-3.266;2023-11-18T14:19:28;14.70;;;3.22;;
23280;SDS011;11809;56.390;-3.266;2023-11-18T14:22:02;16.45;;;2.45;;
23280;SDS011;11809;56.390;-3.266;2023-11-18T14:24:33;7.43;;;2.10;;
23280;SDS011;11809;56.390;-3.266;2023-11-18T14:27:05;22.58;;;2.50;;
23280;SDS011;11809;56.390;-3.266;2023-11-18T14:29:37;4.95;;;2.00;;
23280;SDS011;11809;56.390;-3.266;2023-11-18T14:34:42;4.97;;;1.60;;
23280;SDS011;11809;56.390;-3.266;2023-11-18T14:37:16;9.32;;;3.17;;
23280;SDS011;11809;56.390;-3.266;2023-11-18T14:39:47;16.33;;;5.90;;
23280;SDS011;11809;56.390;-3.266;2023-11-18T14:42:19;3.80;;;2.38;;
23280;SDS011;11809;56.390;-3.266;2023-11-18T14:44:51;14.85;;;5.70;;
23280;SDS011;11809;56.390;-3.266;2023-11-18T14:47:26;27.33;;;15.52;;
23280;SDS011;11809;56.390;-3.266;2023-11-18T14:49:57;37.00;;;25.80;;
23280;SDS011;11809;56.390;-3.266;2023-11-18T14:52:29;41.78;;;28.75;;
23280;SDS011;11809;56.390;-3.266;2023-11-18T14:55:00;48.65;;;33.65;;
23280;SDS011;11809;56.390;-3.266;2023-11-18T14:57:33;55.65;;;39.55;;
23280;SDS011;11809;56.390;-3.266;2023-11-18T15:00:07;59.38;;;39.28;;
23280;SDS011;11809;56.390;-3.266;2023-11-18T15:02:49;62.20;;;45.42;;
23280;SDS011;11809;56.390;-3.266;2023-11-18T15:05:24;74.00;;;53.10;;
23280;SDS011;11809;56.390;-3.266;2023-11-18T15:07:56;66.30;;;50.25;;
23280;SDS011;11809;56.390;-3.266;2023-11-18T15:10:28;64.00;;;44.40;;
23280;SDS011;11809;56.390;-3.266;2023-11-18T15:12:58;57.90;;;38.85;;
23280;SDS011;11809;56.390;-3.266;2023-11-18T15:15:30;48.45;;;35.38;;
23280;SDS011;11809;56.390;-3.266;2023-11-18T15:18:05;42.22;;;30.55;;
23280;SDS011;11809;56.390;-3.266;2023-11-18T15:20:41;43.35;;;27.85;;
23280;SDS011;11809;56.390;-3.266;2023-11-18T15:23:14;36.08;;;25.02;;
23280;SDS011;11809;56.390;-3.266;2023-11-18T15:25:49;33.22;;;22.88;;
23280;SDS011;11809;56.390;-3.266;2023-11-18T15:28:20;29.52;;;19.75;;
23280;SDS011;11809;56.390;-3.266;2023-11-18T15:30:51;23.67;;;17.67;;
23280;SDS011;11809;56.390;-3.266;2023-11-18T15:33:24;22.30;;;15.75;;
23280;SDS011;11809;56.390;-3.266;2023-11-18T15:35:55;20.08;;;14.77;;
23280;SDS011;11809;56.390;-3.266;2023-11-18T15:38:26;15.60;;;12.30;;
23280;SDS011;11809;56.390;-3.266;2023-11-18T15:40:57;15.07;;;11.38;;